sensor_id;sensor_type;location;lat;lon;timestamp;P1;durP1;ratioP1;P2;durP2;ratioP2
1577;SDS011;57623;53.608;10.004;2023-03-24T00:01:08;9.83;;;6.30;;
1577;SDS011;57623;53.608;10.004;2023-03-24T00:03:36;6.13;;;5.63;;
1577;SDS011;57623;53.608;10.004;2023-03-24T00:06:05;7.60;;;6.70;;
1577;SDS011;57623;53.608;10.004;2023-03-24T00:08:35;6.43;;;5.83;;
1577;SDS011;57623;53.608;10.004;2023-03-24T00:11:05;6.53;;;5.93;;
1577;SDS011;57623;53.608;10.004;2023-03-24T00:13:34;6.27;;;5.70;;
1577;SDS011;57623;53.608;10.004;2023-03-24T00:16:04;6.77;;;4.97;;
1577;SDS011;57623;53.608;10.004;2023-03-24T00:18:35;5.90;;;5.40;;
1577;SDS011;57623;53.608;10.004;2023-03-24T00:21:05;6.60;;;5.67;;
1577;SDS011;57623;53.608;10.004;2023-03-24T00:23:36;5.87;;;5.30;;
1577;SDS011;57623;53.608;10.004;2023-03-24T00:26:08;5.00;;;4.50;;
1577;SDS011;57623;53.608;10.004;2023-03-24T00:28:41;5.40;;;5.00;;
1577;SDS011;57623;53.608;10.004;2023-03-24T00:31:11;5.20;;;4.70;;
1577;SDS011;57623;53.608;10.004;2023-03-24T00:33:43;6.10;;;4.70;;
1577;SDS011;57623;53.608;10.004;2023-03-24T00:36:16;5.97;;;5.20;;
1577;SDS011;57623;53.608;10.004;2023-03-24T00:38:46;6.60;;;4.13;;
1577;SDS011;57623;53.608;10.004;2023-03-24T00:41:15;5.33;;;4.47;;
1577;SDS011;57623;53.608;10.004;2023-03-24T00:43:45;4.80;;;4.23;;
1577;SDS011;57623;53.608;10.004;2023-03-24T00:46:14;4.47;;;4.10;;
1577;SDS011;57623;53.608;10.004;2023-03-24T00:48:56;4.93;;;4.43;;
1577;SDS011;57623;53.608;10.004;2023-03-24T00:51:29;7.17;;;4.03;;
1577;SDS011;57623;53.608;10.004;2023-03-24T00:53:58;5.00;;;4.00;;
1577;SDS011;57623;53.608;10.004;2023-03-24T00:56:28;4.83;;;4.30;;
1577;SDS011;57623;53.608;10.004;2023-03-24T00:58:57;4.07;;;3.43;;
1577;SDS011;57623;53.608;10.004;2023-03-24T01:01:28;5.10;;;4.13;;
1577;SDS011;57623;53.608;10.004;2023-03-24T01:04:02;4.20;;;3.40;;
1577;SDS011;57623;53.608;10.004;2023-03-24T01:06:32;3.70;;;3.40;;
1577;SDS011;57623;53.608;10.004;2023-03-24T01:09:03;4.33;;;3.93;;
1577;SDS011;57623;53.608;10.004;2023-03-24T01:11:33;5.13;;;3.70;;
1577;SDS011;57623;53.608;10.004;2023-03-24T01:14:04;5.00;;;3.00;;
1577;SDS011;57623;53.608;10.004;2023-03-24T01:16:32;5.87;;;3.83;;
1577;SDS011;57623;53.608;10.004;2023-03-24T01:19:03;4.87;;;3.93;;
1577;SDS011;57623;53.608;10.004;2023-03-24T01:21:32;4.50;;;3.50;;
1577;SDS011;57623;53.608;10.004;2023-03-24T01:24:00;4.80;;;4.30;;
1577;SDS011;57623;53.608;10.004;2023-03-24T01:26:30;4.97;;;4.43;;
1577;SDS011;57623;53.608;10.004;2023-03-24T01:28:58;3.93;;;3.57;;
1577;SDS011;57623;53.608;10.004;2023-03-24T01:31:26;4.70;;;4.00;;
1577;SDS011;57623;53.608;10.004;2023-03-24T01:33:54;4.40;;;3.70;;
1577;SDS011;57623;53.608;10.004;2023-03-24T01:36:24;4.43;;;3.57;;
1577;SDS011;57623;53.608;10.004;2023-03-24T01:38:52;5.13;;;4.50;;
1577;SDS011;57623;53.608;10.004;2023-03-24T01:41:20;4.23;;;3.70;;
1577;SDS011;57623;53.608;10.004;2023-03-24T01:43:48;4.40;;;3.87;;
1577;SDS011;57623;53.608;10.004;2023-03-24T01:46:17;4.13;;;3.73;;
1577;SDS011;57623;53.608;10.004;2023-03-24T01:48:48;4.30;;;3.97;;
1577;SDS011;57623;53.608;10.004;2023-03-24T01:51:19;4.10;;;3.70;;
1577;SDS011;57623;53.608;10.004;2023-03-24T01:53:52;8.40;;;4.30;;
1577;SDS011;57623;53.608;10.004;2023-03-24T01:56:24;6.03;;;5.20;;
1577;SDS011;57623;53.608;10.004;2023-03-24T01:58:54;4.20;;;3.60;;
1577;SDS011;57623;53.608;10.004;2023-03-24T02:01:25;7.73;;;4.10;;
1577;SDS011;57623;53.608;10.004;2023-03-24T02:03:56;3.87;;;3.47;;
1577;SDS011;57623;53.608;10.004;2023-03-24T02:06:25;5.00;;;4.00;;
1577;SDS011;57623;53.608;10.004;2023-03-24T02:08:55;3.93;;;3.53;;
1577;SDS011;57623;53.608;10.004;2023-03-24T02:11:27;4.87;;;3.90;;
1577;SDS011;57623;53.608;10.004;2023-03-24T02:13:56;4.60;;;3.67;;
1577;SDS011;57623;53.608;10.004;2023-03-24T02:16:35;4.30;;;3.70;;
1577;SDS011;57623;53.608;10.004;2023-03-24T02:22:31;6.87;;;4.60;;
1577;SDS011;57623;53.608;10.004;2023-03-24T02:25:37;5.80;;;4.30;;
1577;SDS011;57623;53.608;10.004;2023-03-24T02:28:22;5.13;;;3.73;;
1577;SDS011;57623;53.608;10.004;2023-03-24T02:36:56;4.30;;;3.37;;
1577;SDS011;57623;53.608;10.004;2023-03-24T02:39:40;5.73;;;3.77;;
1577;SDS011;57623;53.608;10.004;2023-03-24T02:42:21;4.37;;;3.80;;
1577;SDS011;57623;53.608;10.004;2023-03-24T02:45:00;4.40;;;4.00;;
1577;SDS011;57623;53.608;10.004;2023-03-24T02:47:37;3.97;;;3.57;;
1577;SDS011;57623;53.608;10.004;2023-03-24T02:50:13;4.43;;;4.03;;
1577;SDS011;57623;53.608;10.004;2023-03-24T02:52:48;5.33;;;3.80;;
1577;SDS011;57623;53.608;10.004;2023-03-24T02:55:27;4.80;;;4.20;;
1577;SDS011;57623;53.608;10.004;2023-03-24T02:58:02;4.73;;;3.90;;
1577;SDS011;57623;53.608;10.004;2023-03-24T03:00:33;5.10;;;3.97;;
1577;SDS011;57623;53.608;10.004;2023-03-24T03:03:07;3.90;;;3.47;;
1577;SDS011;57623;53.608;10.004;2023-03-24T03:05:41;5.13;;;4.07;;
1577;SDS011;57623;53.608;10.004;2023-03-24T03:08:12;5.07;;;4.20;;
1577;SDS011;57623;53.608;10.004;2023-03-24T03:10:45;4.63;;;4.20;;
1577;SDS011;57623;53.608;10.004;2023-03-24T03:13:15;4.73;;;4.07;;
1577;SDS011;57623;53.608;10.004;2023-03-24T03:15:50;5.33;;;4.47;;
1577;SDS011;57623;53.608;10.004;2023-03-24T03:18:21;7.57;;;4.07;;
1577;SDS011;57623;53.608;10.004;2023-03-24T03:20:55;4.37;;;3.97;;
1577;SDS011;57623;53.608;10.004;2023-03-24T03:23:28;4.17;;;3.80;;
1577;SDS011;57623;53.608;10.004;2023-03-24T03:26:03;5.07;;;4.17;;
1577;SDS011;57623;53.608;10.004;2023-03-24T03:28:35;5.23;;;4.13;;
1577;SDS011;57623;53.608;10.004;2023-03-24T03:31:09;5.40;;;4.00;;
1577;SDS011;57623;53.608;10.004;2023-03-24T03:33:42;5.33;;;4.20;;
1577;SDS011;57623;53.608;10.004;2023-03-24T03:36:17;4.80;;;4.23;;
1577;SDS011;57623;53.608;10.004;2023-03-24T03:38:53;4.70;;;4.30;;
1577;SDS011;57623;53.608;10.004;2023-03-24T03:41:28;4.50;;;4.00;;
1577;SDS011;57623;53.608;10.004;2023-03-24T03:43:57;4.40;;;3.87;;
1577;SDS011;57623;53.608;10.004;2023-03-24T03:46:25;4.40;;;4.00;;
1577;SDS011;57623;53.608;10.004;2023-03-24T03:48:53;4.87;;;3.97;;
1577;SDS011;57623;53.608;10.004;2023-03-24T03:51:22;6.73;;;4.43;;
1577;SDS011;57623;53.608;10.004;2023-03-24T03:53:50;5.07;;;4.57;;
1577;SDS011;57623;53.608;10.004;2023-03-24T03:56:21;5.87;;;4.60;;
1577;SDS011;57623;53.608;10.004;2023-03-24T03:58:52;4.97;;;4.47;;
1577;SDS011;57623;53.608;10.004;2023-03-24T04:01:21;5.43;;;4.47;;
1577;SDS011;57623;53.608;10.004;2023-03-24T04:04:08;5.20;;;4.60;;
1577;SDS011;57623;53.608;10.004;2023-03-24T04:06:48;5.80;;;5.30;;
1577;SDS011;57623;53.608;10.004;2023-03-24T04:09:28;5.07;;;4.57;;
1577;SDS011;57623;53.608;10.004;2023-03-24T04:15:09;5.30;;;4.63;;
1577;SDS011;57623;53.608;10.004;2023-03-24T04:21:09;4.80;;;4.30;;
1577;SDS011;57623;53.608;10.004;2023-03-24T04:23:54;5.73;;;4.60;;
1577;SDS011;57623;53.608;10.004;2023-03-24T04:26:33;5.70;;;5.30;;
1577;SDS011;57623;53.608;10.004;2023-03-24T04:29:07;4.97;;;4.57;;
1577;SDS011;57623;53.608;10.004;2023-03-24T04:31:45;5.03;;;4.57;;
1577;SDS011;57623;53.608;10.004;2023-03-24T04:34:19;5.30;;;4.77;;
1577;SDS011;57623;53.608;10.004;2023-03-24T04:36:51;5.30;;;4.90;;
1577;SDS011;57623;53.608;10.004;2023-03-24T04:39:24;5.50;;;5.10;;
1577;SDS011;57623;53.608;10.004;2023-03-24T04:41:54;5.40;;;5.00;;
1577;SDS011;57623;53.608;10.004;2023-03-24T04:44:24;7.40;;;5.10;;
1577;SDS011;57623;53.608;10.004;2023-03-24T04:46:55;5.40;;;4.90;;
1577;SDS011;57623;53.608;10.004;2023-03-24T04:49:25;4.77;;;4.37;;
1577;SDS011;57623;53.608;10.004;2023-03-24T04:51:53;4.60;;;4.20;;
1577;SDS011;57623;53.608;10.004;2023-03-24T04:54:22;4.40;;;4.00;;
1577;SDS011;57623;53.608;10.004;2023-03-24T04:56:50;5.53;;;5.03;;
1577;SDS011;57623;53.608;10.004;2023-03-24T04:59:20;4.73;;;4.43;;
1577;SDS011;57623;53.608;10.004;2023-03-24T05:01:48;5.50;;;5.00;;
1577;SDS011;57623;53.608;10.004;2023-03-24T05:04:18;5.07;;;4.67;;
1577;SDS011;57623;53.608;10.004;2023-03-24T05:06:47;5.73;;;5.07;;
1577;SDS011;57623;53.608;10.004;2023-03-24T05:09:16;6.07;;;5.10;;
1577;SDS011;57623;53.608;10.004;2023-03-24T05:11:46;5.60;;;4.90;;
1577;SDS011;57623;53.608;10.004;2023-03-24T05:14:14;5.43;;;5.03;;
1577;SDS011;57623;53.608;10.004;2023-03-24T05:16:42;4.93;;;4.53;;
1577;SDS011;57623;53.608;10.004;2023-03-24T05:19:11;6.17;;;5.57;;
1577;SDS011;57623;53.608;10.004;2023-03-24T05:21:40;5.43;;;5.03;;
1577;SDS011;57623;53.608;10.004;2023-03-24T05:24:08;5.20;;;4.80;;
1577;SDS011;57623;53.608;10.004;2023-03-24T05:26:37;5.73;;;5.30;;
1577;SDS011;57623;53.608;10.004;2023-03-24T05:29:05;5.10;;;4.70;;
1577;SDS011;57623;53.608;10.004;2023-03-24T05:31:33;5.80;;;5.30;;
1577;SDS011;57623;53.608;10.004;2023-03-24T05:34:01;5.03;;;4.63;;
1577;SDS011;57623;53.608;10.004;2023-03-24T05:36:29;5.60;;;5.10;;
1577;SDS011;57623;53.608;10.004;2023-03-24T05:38:58;4.73;;;4.33;;
1577;SDS011;57623;53.608;10.004;2023-03-24T05:41:26;5.20;;;4.80;;
1577;SDS011;57623;53.608;10.004;2023-03-24T05:43:54;5.00;;;4.60;;
1577;SDS011;57623;53.608;10.004;2023-03-24T05:46:22;5.40;;;5.00;;
1577;SDS011;57623;53.608;10.004;2023-03-24T05:48:51;5.00;;;4.60;;
1577;SDS011;57623;53.608;10.004;2023-03-24T05:51:19;5.80;;;5.23;;
1577;SDS011;57623;53.608;10.004;2023-03-24T05:53:47;5.23;;;4.83;;
1577;SDS011;57623;53.608;10.004;2023-03-24T05:56:18;5.13;;;4.83;;
1577;SDS011;57623;53.608;10.004;2023-03-24T05:58:46;5.23;;;4.83;;
1577;SDS011;57623;53.608;10.004;2023-03-24T06:01:14;5.60;;;5.10;;
1577;SDS011;57623;53.608;10.004;2023-03-24T06:03:43;5.70;;;5.20;;
1577;SDS011;57623;53.608;10.004;2023-03-24T06:06:11;6.10;;;5.60;;
1577;SDS011;57623;53.608;10.004;2023-03-24T06:08:42;5.03;;;4.73;;
1577;SDS011;57623;53.608;10.004;2023-03-24T06:11:11;5.03;;;4.73;;
1577;SDS011;57623;53.608;10.004;2023-03-24T06:13:40;5.03;;;4.63;;
1577;SDS011;57623;53.608;10.004;2023-03-24T06:16:08;5.53;;;5.03;;
1577;SDS011;57623;53.608;10.004;2023-03-24T06:18:36;5.13;;;4.73;;
1577;SDS011;57623;53.608;10.004;2023-03-24T06:21:07;5.00;;;4.60;;
1577;SDS011;57623;53.608;10.004;2023-03-24T06:23:35;5.67;;;5.27;;
1577;SDS011;57623;53.608;10.004;2023-03-24T06:26:06;5.10;;;4.70;;
1577;SDS011;57623;53.608;10.004;2023-03-24T06:28:36;5.23;;;4.83;;
1577;SDS011;57623;53.608;10.004;2023-03-24T06:31:06;5.17;;;4.67;;
1577;SDS011;57623;53.608;10.004;2023-03-24T06:33:40;5.67;;;4.97;;
1577;SDS011;57623;53.608;10.004;2023-03-24T06:36:09;4.93;;;4.60;;
1577;SDS011;57623;53.608;10.004;2023-03-24T06:38:38;4.40;;;4.10;;
1577;SDS011;57623;53.608;10.004;2023-03-24T06:41:07;4.90;;;4.50;;
1577;SDS011;57623;53.608;10.004;2023-03-24T06:43:35;4.30;;;3.90;;
1577;SDS011;57623;53.608;10.004;2023-03-24T06:46:04;4.33;;;3.93;;
1577;SDS011;57623;53.608;10.004;2023-03-24T06:48:33;4.53;;;4.13;;
1577;SDS011;57623;53.608;10.004;2023-03-24T06:51:01;4.70;;;4.30;;
1577;SDS011;57623;53.608;10.004;2023-03-24T06:53:30;4.90;;;4.50;;
1577;SDS011;57623;53.608;10.004;2023-03-24T06:55:58;4.37;;;3.97;;
1577;SDS011;57623;53.608;10.004;2023-03-24T06:58:26;4.43;;;4.10;;
1577;SDS011;57623;53.608;10.004;2023-03-24T07:00:54;5.00;;;4.60;;
1577;SDS011;57623;53.608;10.004;2023-03-24T07:03:22;4.73;;;4.37;;
1577;SDS011;57623;53.608;10.004;2023-03-24T07:05:52;4.70;;;4.40;;
1577;SDS011;57623;53.608;10.004;2023-03-24T07:08:20;3.87;;;3.63;;
1577;SDS011;57623;53.608;10.004;2023-03-24T07:11:04;4.13;;;3.83;;
1577;SDS011;57623;53.608;10.004;2023-03-24T07:13:34;4.00;;;3.70;;
1577;SDS011;57623;53.608;10.004;2023-03-24T07:16:02;3.57;;;3.30;;
1577;SDS011;57623;53.608;10.004;2023-03-24T07:18:30;3.40;;;3.10;;
1577;SDS011;57623;53.608;10.004;2023-03-24T07:20:59;3.93;;;3.10;;
1577;SDS011;57623;53.608;10.004;2023-03-24T07:23:27;2.90;;;2.70;;
1577;SDS011;57623;53.608;10.004;2023-03-24T07:25:56;3.13;;;2.93;;
1577;SDS011;57623;53.608;10.004;2023-03-24T07:28:24;3.33;;;3.03;;
1577;SDS011;57623;53.608;10.004;2023-03-24T07:30:52;3.10;;;2.90;;
1577;SDS011;57623;53.608;10.004;2023-03-24T07:33:21;3.47;;;2.60;;
1577;SDS011;57623;53.608;10.004;2023-03-24T07:35:52;2.97;;;2.73;;
1577;SDS011;57623;53.608;10.004;2023-03-24T07:38:22;2.50;;;2.40;;
1577;SDS011;57623;53.608;10.004;2023-03-24T07:40:51;2.23;;;2.03;;
1577;SDS011;57623;53.608;10.004;2023-03-24T07:43:19;2.10;;;1.80;;
1577;SDS011;57623;53.608;10.004;2023-03-24T07:45:47;2.13;;;1.60;;
1577;SDS011;57623;53.608;10.004;2023-03-24T07:48:15;2.20;;;2.00;;
1577;SDS011;57623;53.608;10.004;2023-03-24T07:50:46;3.37;;;2.00;;
1577;SDS011;57623;53.608;10.004;2023-03-24T07:53:14;2.50;;;1.80;;
1577;SDS011;57623;53.608;10.004;2023-03-24T07:55:46;2.20;;;2.00;;
1577;SDS011;57623;53.608;10.004;2023-03-24T07:58:15;2.93;;;1.90;;
1577;SDS011;57623;53.608;10.004;2023-03-24T08:00:43;2.93;;;1.73;;
1577;SDS011;57623;53.608;10.004;2023-03-24T08:03:11;1.77;;;1.60;;
1577;SDS011;57623;53.608;10.004;2023-03-24T08:05:41;3.40;;;1.40;;
1577;SDS011;57623;53.608;10.004;2023-03-24T08:08:11;3.43;;;1.80;;
1577;SDS011;57623;53.608;10.004;2023-03-24T08:10:39;4.10;;;1.60;;
1577;SDS011;57623;53.608;10.004;2023-03-24T08:13:09;5.20;;;1.57;;
1577;SDS011;57623;53.608;10.004;2023-03-24T08:15:37;3.40;;;1.93;;
1577;SDS011;57623;53.608;10.004;2023-03-24T08:18:05;5.47;;;1.70;;
1577;SDS011;57623;53.608;10.004;2023-03-24T08:20:33;4.97;;;1.60;;
1577;SDS011;57623;53.608;10.004;2023-03-24T08:23:01;3.13;;;1.50;;
1577;SDS011;57623;53.608;10.004;2023-03-24T08:25:30;3.37;;;1.57;;
1577;SDS011;57623;53.608;10.004;2023-03-24T08:27:58;4.57;;;1.90;;
1577;SDS011;57623;53.608;10.004;2023-03-24T08:30:27;2.90;;;2.10;;
1577;SDS011;57623;53.608;10.004;2023-03-24T08:32:56;8.30;;;2.20;;
1577;SDS011;57623;53.608;10.004;2023-03-24T08:35:26;2.97;;;1.60;;
1577;SDS011;57623;53.608;10.004;2023-03-24T08:37:56;2.10;;;1.40;;
1577;SDS011;57623;53.608;10.004;2023-03-24T08:40:27;3.30;;;1.83;;
1577;SDS011;57623;53.608;10.004;2023-03-24T08:42:57;4.03;;;1.90;;
1577;SDS011;57623;53.608;10.004;2023-03-24T08:45:29;5.20;;;1.70;;
1577;SDS011;57623;53.608;10.004;2023-03-24T08:47:58;4.10;;;1.97;;
1577;SDS011;57623;53.608;10.004;2023-03-24T08:50:29;5.07;;;2.00;;
1577;SDS011;57623;53.608;10.004;2023-03-24T08:53:00;3.30;;;1.80;;
1577;SDS011;57623;53.608;10.004;2023-03-24T08:55:29;2.50;;;1.70;;
1577;SDS011;57623;53.608;10.004;2023-03-24T08:57:58;2.33;;;1.60;;
1577;SDS011;57623;53.608;10.004;2023-03-24T09:00:28;4.40;;;1.87;;
1577;SDS011;57623;53.608;10.004;2023-03-24T09:02:56;2.67;;;1.30;;
1577;SDS011;57623;53.608;10.004;2023-03-24T09:05:26;4.40;;;1.73;;
1577;SDS011;57623;53.608;10.004;2023-03-24T09:08:09;4.73;;;1.43;;
1577;SDS011;57623;53.608;10.004;2023-03-24T09:10:38;6.17;;;1.97;;
1577;SDS011;57623;53.608;10.004;2023-03-24T09:13:06;3.53;;;1.73;;
1577;SDS011;57623;53.608;10.004;2023-03-24T09:15:36;2.37;;;1.67;;
1577;SDS011;57623;53.608;10.004;2023-03-24T09:18:04;3.67;;;1.83;;
1577;SDS011;57623;53.608;10.004;2023-03-24T09:20:33;6.40;;;2.50;;
1577;SDS011;57623;53.608;10.004;2023-03-24T09:23:01;5.03;;;2.30;;
1577;SDS011;57623;53.608;10.004;2023-03-24T09:25:29;5.33;;;1.93;;
1577;SDS011;57623;53.608;10.004;2023-03-24T09:27:57;5.03;;;2.30;;
1577;SDS011;57623;53.608;10.004;2023-03-24T09:30:26;3.33;;;1.50;;
1577;SDS011;57623;53.608;10.004;2023-03-24T09:32:58;3.30;;;1.63;;
1577;SDS011;57623;53.608;10.004;2023-03-24T09:35:26;2.80;;;1.57;;
1577;SDS011;57623;53.608;10.004;2023-03-24T09:37:55;3.03;;;1.60;;
1577;SDS011;57623;53.608;10.004;2023-03-24T09:40:23;4.00;;;1.97;;
1577;SDS011;57623;53.608;10.004;2023-03-24T09:42:54;4.80;;;1.90;;
1577;SDS011;57623;53.608;10.004;2023-03-24T09:45:26;5.50;;;1.87;;
1577;SDS011;57623;53.608;10.004;2023-03-24T09:48:01;7.30;;;2.17;;
1577;SDS011;57623;53.608;10.004;2023-03-24T09:50:32;5.33;;;1.70;;
1577;SDS011;57623;53.608;10.004;2023-03-24T09:53:04;4.10;;;1.87;;
1577;SDS011;57623;53.608;10.004;2023-03-24T09:55:36;4.37;;;1.90;;
1577;SDS011;57623;53.608;10.004;2023-03-24T09:58:09;5.10;;;1.80;;
1577;SDS011;57623;53.608;10.004;2023-03-24T10:00:39;4.77;;;2.00;;
1577;SDS011;57623;53.608;10.004;2023-03-24T10:03:12;2.90;;;1.47;;
1577;SDS011;57623;53.608;10.004;2023-03-24T10:05:46;3.63;;;1.70;;
1577;SDS011;57623;53.608;10.004;2023-03-24T10:08:20;4.43;;;2.97;;
1577;SDS011;57623;53.608;10.004;2023-03-24T10:10:58;4.40;;;1.90;;
1577;SDS011;57623;53.608;10.004;2023-03-24T10:13:31;8.50;;;2.10;;
1577;SDS011;57623;53.608;10.004;2023-03-24T10:16:10;2.10;;;1.73;;
1577;SDS011;57623;53.608;10.004;2023-03-24T10:18:47;4.60;;;2.23;;
1577;SDS011;57623;53.608;10.004;2023-03-24T10:21:21;6.03;;;2.10;;
1577;SDS011;57623;53.608;10.004;2023-03-24T10:23:53;3.87;;;1.67;;
1577;SDS011;57623;53.608;10.004;2023-03-24T10:26:34;4.47;;;1.70;;
1577;SDS011;57623;53.608;10.004;2023-03-24T10:29:12;3.47;;;2.07;;
1577;SDS011;57623;53.608;10.004;2023-03-24T10:31:49;4.00;;;2.03;;
1577;SDS011;57623;53.608;10.004;2023-03-24T10:34:22;4.10;;;1.80;;
1577;SDS011;57623;53.608;10.004;2023-03-24T10:36:55;5.50;;;2.30;;
1577;SDS011;57623;53.608;10.004;2023-03-24T10:39:24;4.03;;;1.60;;
1577;SDS011;57623;53.608;10.004;2023-03-24T10:42:11;3.17;;;1.80;;
1577;SDS011;57623;53.608;10.004;2023-03-24T10:44:42;4.37;;;1.57;;
1577;SDS011;57623;53.608;10.004;2023-03-24T10:47:12;3.03;;;1.80;;
1577;SDS011;57623;53.608;10.004;2023-03-24T10:49:52;3.40;;;1.47;;
1577;SDS011;57623;53.608;10.004;2023-03-24T10:52:21;2.23;;;1.60;;
1577;SDS011;57623;53.608;10.004;2023-03-24T10:54:54;3.70;;;1.50;;
1577;SDS011;57623;53.608;10.004;2023-03-24T10:57:23;2.37;;;1.33;;
1577;SDS011;57623;53.608;10.004;2023-03-24T10:59:54;5.27;;;1.80;;
1577;SDS011;57623;53.608;10.004;2023-03-24T11:02:25;3.67;;;1.60;;
1577;SDS011;57623;53.608;10.004;2023-03-24T11:04:58;4.37;;;1.60;;
1577;SDS011;57623;53.608;10.004;2023-03-24T11:07:29;5.30;;;1.97;;
1577;SDS011;57623;53.608;10.004;2023-03-24T11:10:03;4.57;;;1.70;;
1577;SDS011;57623;53.608;10.004;2023-03-24T11:12:34;4.70;;;1.87;;
1577;SDS011;57623;53.608;10.004;2023-03-24T11:15:13;5.67;;;1.90;;
1577;SDS011;57623;53.608;10.004;2023-03-24T11:17:51;3.13;;;1.97;;
1577;SDS011;57623;53.608;10.004;2023-03-24T11:20:25;4.50;;;1.50;;
1577;SDS011;57623;53.608;10.004;2023-03-24T11:23:00;5.30;;;2.00;;
1577;SDS011;57623;53.608;10.004;2023-03-24T11:25:31;2.70;;;1.80;;
1577;SDS011;57623;53.608;10.004;2023-03-24T11:28:01;4.23;;;2.00;;
1577;SDS011;57623;53.608;10.004;2023-03-24T11:30:32;3.67;;;1.70;;
1577;SDS011;57623;53.608;10.004;2023-03-24T11:33:02;7.77;;;2.17;;
1577;SDS011;57623;53.608;10.004;2023-03-24T11:35:33;4.57;;;1.60;;
1577;SDS011;57623;53.608;10.004;2023-03-24T11:38:27;5.03;;;1.60;;
1577;SDS011;57623;53.608;10.004;2023-03-24T11:40:57;5.00;;;1.93;;
1577;SDS011;57623;53.608;10.004;2023-03-24T11:43:27;3.30;;;1.77;;
1577;SDS011;57623;53.608;10.004;2023-03-24T11:45:57;2.33;;;1.30;;
1577;SDS011;57623;53.608;10.004;2023-03-24T11:48:29;3.07;;;1.60;;
1577;SDS011;57623;53.608;10.004;2023-03-24T11:51:07;2.40;;;1.37;;
1577;SDS011;57623;53.608;10.004;2023-03-24T11:53:40;4.27;;;1.73;;
1577;SDS011;57623;53.608;10.004;2023-03-24T11:56:15;3.90;;;1.60;;
1577;SDS011;57623;53.608;10.004;2023-03-24T11:58:50;5.83;;;2.00;;
1577;SDS011;57623;53.608;10.004;2023-03-24T12:01:24;4.80;;;1.80;;
1577;SDS011;57623;53.608;10.004;2023-03-24T12:03:58;3.83;;;1.70;;
1577;SDS011;57623;53.608;10.004;2023-03-24T12:06:41;5.07;;;1.80;;
1577;SDS011;57623;53.608;10.004;2023-03-24T12:09:21;3.57;;;1.57;;
1577;SDS011;57623;53.608;10.004;2023-03-24T12:12:00;6.27;;;2.00;;
1577;SDS011;57623;53.608;10.004;2023-03-24T12:14:43;4.13;;;2.00;;
1577;SDS011;57623;53.608;10.004;2023-03-24T12:17:21;6.77;;;2.27;;
1577;SDS011;57623;53.608;10.004;2023-03-24T12:19:56;7.00;;;2.03;;
1577;SDS011;57623;53.608;10.004;2023-03-24T12:22:49;5.43;;;2.93;;
1577;SDS011;57623;53.608;10.004;2023-03-24T12:25:31;6.73;;;2.40;;
1577;SDS011;57623;53.608;10.004;2023-03-24T12:28:14;5.53;;;1.90;;
1577;SDS011;57623;53.608;10.004;2023-03-24T12:30:53;3.50;;;1.83;;
1577;SDS011;57623;53.608;10.004;2023-03-24T12:33:31;5.20;;;2.40;;
1577;SDS011;57623;53.608;10.004;2023-03-24T12:36:10;5.17;;;2.07;;
1577;SDS011;57623;53.608;10.004;2023-03-24T12:38:53;5.03;;;2.40;;
1577;SDS011;57623;53.608;10.004;2023-03-24T12:41:36;5.17;;;2.67;;
1577;SDS011;57623;53.608;10.004;2023-03-24T12:44:22;6.20;;;2.43;;
1577;SDS011;57623;53.608;10.004;2023-03-24T12:47:06;5.33;;;1.70;;
1577;SDS011;57623;53.608;10.004;2023-03-24T12:49:50;4.07;;;2.03;;
1577;SDS011;57623;53.608;10.004;2023-03-24T12:52:38;4.70;;;1.87;;
1577;SDS011;57623;53.608;10.004;2023-03-24T12:55:36;4.43;;;1.70;;
1577;SDS011;57623;53.608;10.004;2023-03-24T12:58:10;4.03;;;2.07;;
1577;SDS011;57623;53.608;10.004;2023-03-24T13:00:44;5.57;;;2.33;;
1577;SDS011;57623;53.608;10.004;2023-03-24T13:03:22;4.30;;;2.00;;
1577;SDS011;57623;53.608;10.004;2023-03-24T13:05:56;4.80;;;1.77;;
1577;SDS011;57623;53.608;10.004;2023-03-24T13:08:42;6.00;;;2.13;;
1577;SDS011;57623;53.608;10.004;2023-03-24T13:11:23;3.00;;;1.90;;
1577;SDS011;57623;53.608;10.004;2023-03-24T13:14:02;6.73;;;1.90;;
1577;SDS011;57623;53.608;10.004;2023-03-24T13:16:37;4.93;;;2.17;;
1577;SDS011;57623;53.608;10.004;2023-03-24T13:19:09;2.77;;;1.93;;
1577;SDS011;57623;53.608;10.004;2023-03-24T13:21:45;4.10;;;1.87;;
1577;SDS011;57623;53.608;10.004;2023-03-24T13:24:14;4.27;;;2.20;;
1577;SDS011;57623;53.608;10.004;2023-03-24T13:26:46;3.80;;;1.80;;
1577;SDS011;57623;53.608;10.004;2023-03-24T13:29:25;4.13;;;2.13;;
1577;SDS011;57623;53.608;10.004;2023-03-24T13:32:16;3.87;;;2.10;;
1577;SDS011;57623;53.608;10.004;2023-03-24T13:34:56;3.77;;;1.90;;
1577;SDS011;57623;53.608;10.004;2023-03-24T13:37:28;5.80;;;1.73;;
1577;SDS011;57623;53.608;10.004;2023-03-24T13:40:04;3.47;;;1.77;;
1577;SDS011;57623;53.608;10.004;2023-03-24T13:42:42;3.00;;;1.77;;
1577;SDS011;57623;53.608;10.004;2023-03-24T13:45:21;5.27;;;1.53;;
1577;SDS011;57623;53.608;10.004;2023-03-24T13:48:05;4.33;;;2.03;;
1577;SDS011;57623;53.608;10.004;2023-03-24T13:50:48;3.80;;;1.60;;
1577;SDS011;57623;53.608;10.004;2023-03-24T13:53:24;1.93;;;1.30;;
1577;SDS011;57623;53.608;10.004;2023-03-24T13:56:00;3.83;;;2.03;;
1577;SDS011;57623;53.608;10.004;2023-03-24T14:04:43;2.63;;;1.40;;
1577;SDS011;57623;53.608;10.004;2023-03-24T14:07:28;3.67;;;1.80;;
1577;SDS011;57623;53.608;10.004;2023-03-24T14:09:58;3.17;;;1.97;;
1577;SDS011;57623;53.608;10.004;2023-03-24T14:12:28;2.73;;;1.60;;
1577;SDS011;57623;53.608;10.004;2023-03-24T14:15:08;3.93;;;1.60;;
1577;SDS011;57623;53.608;10.004;2023-03-24T14:17:44;2.63;;;1.70;;
1577;SDS011;57623;53.608;10.004;2023-03-24T14:20:24;2.73;;;1.50;;
1577;SDS011;57623;53.608;10.004;2023-03-24T14:22:55;3.70;;;1.53;;
1577;SDS011;57623;53.608;10.004;2023-03-24T14:25:24;2.83;;;1.33;;
1577;SDS011;57623;53.608;10.004;2023-03-24T14:28:05;8.80;;;1.90;;
1577;SDS011;57623;53.608;10.004;2023-03-24T14:30:55;3.33;;;1.63;;
1577;SDS011;57623;53.608;10.004;2023-03-24T14:33:35;3.70;;;1.53;;
1577;SDS011;57623;53.608;10.004;2023-03-24T14:36:04;4.47;;;1.40;;
1577;SDS011;57623;53.608;10.004;2023-03-24T14:38:39;4.40;;;1.97;;
1577;SDS011;57623;53.608;10.004;2023-03-24T14:41:11;4.50;;;1.90;;
1577;SDS011;57623;53.608;10.004;2023-03-24T14:43:51;3.40;;;1.23;;
1577;SDS011;57623;53.608;10.004;2023-03-24T14:46:33;4.77;;;1.77;;
1577;SDS011;57623;53.608;10.004;2023-03-24T14:49:04;4.17;;;1.60;;
1577;SDS011;57623;53.608;10.004;2023-03-24T14:51:40;4.57;;;2.10;;
1577;SDS011;57623;53.608;10.004;2023-03-24T14:54:12;2.63;;;1.20;;
1577;SDS011;57623;53.608;10.004;2023-03-24T14:56:45;5.20;;;2.37;;
1577;SDS011;57623;53.608;10.004;2023-03-24T14:59:21;4.83;;;1.70;;
1577;SDS011;57623;53.608;10.004;2023-03-24T15:01:59;7.13;;;2.00;;
1577;SDS011;57623;53.608;10.004;2023-03-24T15:04:32;4.87;;;1.57;;
1577;SDS011;57623;53.608;10.004;2023-03-24T15:07:04;3.67;;;1.77;;
1577;SDS011;57623;53.608;10.004;2023-03-24T15:09:34;4.43;;;2.20;;
1577;SDS011;57623;53.608;10.004;2023-03-24T15:12:03;3.63;;;1.70;;
1577;SDS011;57623;53.608;10.004;2023-03-24T15:14:31;4.10;;;1.80;;
1577;SDS011;57623;53.608;10.004;2023-03-24T15:17:05;4.00;;;1.57;;
1577;SDS011;57623;53.608;10.004;2023-03-24T15:19:44;4.37;;;2.10;;
1577;SDS011;57623;53.608;10.004;2023-03-24T15:22:17;4.10;;;1.67;;
1577;SDS011;57623;53.608;10.004;2023-03-24T15:24:45;4.10;;;1.30;;
1577;SDS011;57623;53.608;10.004;2023-03-24T15:27:18;5.47;;;1.53;;
1577;SDS011;57623;53.608;10.004;2023-03-24T15:29:52;3.77;;;1.70;;
1577;SDS011;57623;53.608;10.004;2023-03-24T15:32:24;4.30;;;1.53;;
1577;SDS011;57623;53.608;10.004;2023-03-24T15:34:58;5.50;;;1.80;;
1577;SDS011;57623;53.608;10.004;2023-03-24T15:37:31;5.93;;;1.90;;
1577;SDS011;57623;53.608;10.004;2023-03-24T15:40:00;4.07;;;1.43;;
1577;SDS011;57623;53.608;10.004;2023-03-24T15:42:38;4.67;;;2.10;;